sensor_id;sensor_type;location;lat;lon;timestamp;pressure;altitude;pressure_sealevel;temperature;humidity
75740;BME280;64357;51.344;6.550;2023-04-03T00:01:46;102467.78;;;2.10;85.08
75740;BME280;64357;51.344;6.550;2023-04-03T00:04:11;102467.00;;;2.00;85.62
75740;BME280;64357;51.344;6.550;2023-04-03T00:06:37;102465.34;;;1.95;86.15
75740;BME280;64357;51.344;6.550;2023-04-03T00:09:02;102464.34;;;1.83;86.43
75740;BME280;64357;51.344;6.550;2023-04-03T00:11:30;102469.22;;;1.93;86.76
75740;BME280;64357;51.344;6.550;2023-04-03T00:13:55;102470.34;;;1.90;86.70
75740;BME280;64357;51.344;6.550;2023-04-03T00:16:21;102470.53;;;1.85;85.78
75740;BME280;64357;51.344;6.550;2023-04-03T00:18:46;102471.44;;;1.86;86.63
75740;BME280;64357;51.344;6.550;2023-04-03T00:21:12;102461.31;;;1.80;86.10
75740;BME280;64357;51.344;6.550;2023-04-03T00:23:43;102455.53;;;1.76;87.29
75740;BME280;64357;51.344;6.550;2023-04-03T00:26:11;102469.50;;;1.74;86.93
75740;BME280;64357;51.344;6.550;2023-04-03T00:28:36;102456.16;;;1.69;87.07
75740;BME280;64357;51.344;6.550;2023-04-03T00:31:02;102463.47;;;1.68;87.51
75740;BME280;64357;51.344;6.550;2023-04-03T00:33:29;102462.38;;;1.71;87.24
75740;BME280;64357;51.344;6.550;2023-04-03T00:35:54;102457.06;;;1.70;86.98
75740;BME280;64357;51.344;6.550;2023-04-03T00:38:20;102452.25;;;1.66;87.21
75740;BME280;64357;51.344;6.550;2023-04-03T00:40:49;102466.22;;;1.69;87.27
75740;BME280;64357;51.344;6.550;2023-04-03T00:43:22;102469.66;;;1.70;86.54
75740;BME280;64357;51.344;6.550;2023-04-03T00:45:50;102460.22;;;1.63;86.95
75740;BME280;64357;51.344;6.550;2023-04-03T00:48:43;102470.97;;;1.62;87.27
75740;BME280;64357;51.344;6.550;2023-04-03T00:51:29;102474.63;;;1.58;87.17
75740;BME280;64357;51.344;6.550;2023-04-03T00:54:03;102478.00;;;1.53;87.61
75740;BME280;64357;51.344;6.550;2023-04-03T00:56:32;102478.69;;;1.58;87.63
75740;BME280;64357;51.344;6.550;2023-04-03T00:59:08;102477.06;;;1.53;88.08
75740;BME280;64357;51.344;6.550;2023-04-03T01:01:35;102486.31;;;1.64;87.78
75740;BME280;64357;51.344;6.550;2023-04-03T01:04:02;102482.47;;;1.66;87.80
75740;BME280;64357;51.344;6.550;2023-04-03T01:06:30;102471.16;;;1.58;87.63
75740;BME280;64357;51.344;6.550;2023-04-03T01:09:02;102480.91;;;1.51;87.92
75740;BME280;64357;51.344;6.550;2023-04-03T01:11:27;102484.66;;;1.38;88.03
75740;BME280;64357;51.344;6.550;2023-04-03T01:13:53;102476.50;;;1.23;88.32
75740;BME280;64357;51.344;6.550;2023-04-03T01:16:19;102482.75;;;1.31;88.37
75740;BME280;64357;51.344;6.550;2023-04-03T01:18:45;102474.22;;;1.25;88.51
75740;BME280;64357;51.344;6.550;2023-04-03T01:24:20;102483.50;;;1.36;88.10
75740;BME280;64357;51.344;6.550;2023-04-03T01:26:48;102490.38;;;1.37;88.60
75740;BME280;64357;51.344;6.550;2023-04-03T01:29:14;102485.69;;;1.28;88.63
75740;BME280;64357;51.344;6.550;2023-04-03T01:31:49;102491.91;;;1.30;88.38
75740;BME280;64357;51.344;6.550;2023-04-03T01:34:15;102489.63;;;1.32;88.34
75740;BME280;64357;51.344;6.550;2023-04-03T01:36:40;102497.34;;;1.28;88.46
75740;BME280;64357;51.344;6.550;2023-04-03T01:39:06;102494.34;;;1.25;88.41
75740;BME280;64357;51.344;6.550;2023-04-03T01:41:33;102494.97;;;1.18;89.03
75740;BME280;64357;51.344;6.550;2023-04-03T01:43:58;102496.72;;;1.14;89.35
75740;BME280;64357;51.344;6.550;2023-04-03T01:46:23;102504.69;;;1.11;89.37
75740;BME280;64357;51.344;6.550;2023-04-03T01:48:49;102502.03;;;1.00;90.34
75740;BME280;64357;51.344;6.550;2023-04-03T01:51:14;102503.50;;;1.09;90.19
75740;BME280;64357;51.344;6.550;2023-04-03T01:53:40;102495.22;;;1.04;90.01
75740;BME280;64357;51.344;6.550;2023-04-03T01:56:06;102495.06;;;1.09;90.39
75740;BME280;64357;51.344;6.550;2023-04-03T01:58:34;102502.84;;;1.10;90.48
75740;BME280;64357;51.344;6.550;2023-04-03T02:01:00;102503.84;;;1.16;90.30
75740;BME280;64357;51.344;6.550;2023-04-03T02:03:29;102492.78;;;1.10;89.88
75740;BME280;64357;51.344;6.550;2023-04-03T02:05:57;102507.94;;;1.16;90.00
75740;BME280;64357;51.344;6.550;2023-04-03T02:08:22;102507.53;;;1.18;90.04
75740;BME280;64357;51.344;6.550;2023-04-03T02:10:49;102502.50;;;1.18;89.89
75740;BME280;64357;51.344;6.550;2023-04-03T02:13:17;102503.00;;;1.21;89.99
75740;BME280;64357;51.344;6.550;2023-04-03T02:15:43;102512.03;;;1.30;89.66
75740;BME280;64357;51.344;6.550;2023-04-03T02:18:08;102500.53;;;1.27;89.85
75740;BME280;64357;51.344;6.550;2023-04-03T02:20:34;102505.03;;;1.39;89.30
75740;BME280;64357;51.344;6.550;2023-04-03T02:23:00;102514.72;;;1.42;89.22
75740;BME280;64357;51.344;6.550;2023-04-03T02:25:26;102504.13;;;1.39;88.73
75740;BME280;64357;51.344;6.550;2023-04-03T02:27:52;102511.34;;;1.47;88.45
75740;BME280;64357;51.344;6.550;2023-04-03T02:30:19;102508.38;;;1.49;88.61
75740;BME280;64357;51.344;6.550;2023-04-03T02:32:45;102496.81;;;1.40;88.28
75740;BME280;64357;51.344;6.550;2023-04-03T02:35:12;102508.53;;;1.45;88.40
75740;BME280;64357;51.344;6.550;2023-04-03T02:37:38;102501.97;;;1.51;88.00
75740;BME280;64357;51.344;6.550;2023-04-03T02:40:08;102505.25;;;1.56;87.83
75740;BME280;64357;51.344;6.550;2023-04-03T02:42:36;102510.25;;;1.71;86.37
75740;BME280;64357;51.344;6.550;2023-04-03T02:45:02;102509.78;;;1.74;86.11
75740;BME280;64357;51.344;6.550;2023-04-03T02:47:28;102516.59;;;1.69;85.91
75740;BME280;64357;51.344;6.550;2023-04-03T02:49:53;102510.47;;;1.73;86.22
75740;BME280;64357;51.344;6.550;2023-04-03T02:52:21;102512.88;;;1.82;85.87
75740;BME280;64357;51.344;6.550;2023-04-03T02:54:46;102516.56;;;1.84;85.68
75740;BME280;64357;51.344;6.550;2023-04-03T02:57:12;102520.00;;;1.85;85.40
75740;BME280;64357;51.344;6.550;2023-04-03T02:59:41;102512.94;;;1.88;84.59
75740;BME280;64357;51.344;6.550;2023-04-03T03:02:09;102515.69;;;1.90;85.01
75740;BME280;64357;51.344;6.550;2023-04-03T03:04:35;102515.25;;;1.92;84.51
75740;BME280;64357;51.344;6.550;2023-04-03T03:07:01;102518.69;;;1.93;84.53
75740;BME280;64357;51.344;6.550;2023-04-03T03:09:29;102518.03;;;1.94;83.81
75740;BME280;64357;51.344;6.550;2023-04-03T03:11:55;102513.91;;;1.94;84.19
75740;BME280;64357;51.344;6.550;2023-04-03T03:14:21;102520.19;;;2.02;83.66
75740;BME280;64357;51.344;6.550;2023-04-03T03:16:46;102513.03;;;1.99;83.39
75740;BME280;64357;51.344;6.550;2023-04-03T03:19:11;102515.81;;;2.01;83.29
75740;BME280;64357;51.344;6.550;2023-04-03T03:21:37;102503.91;;;2.00;82.66
75740;BME280;64357;51.344;6.550;2023-04-03T03:24:02;102512.66;;;2.07;82.78
75740;BME280;64357;51.344;6.550;2023-04-03T03:26:28;102508.00;;;1.99;82.79
75740;BME280;64357;51.344;6.550;2023-04-03T03:28:53;102517.72;;;2.07;82.26
75740;BME280;64357;51.344;6.550;2023-04-03T03:31:19;102510.88;;;2.12;81.94
75740;BME280;64357;51.344;6.550;2023-04-03T03:33:44;102512.78;;;2.19;81.48
75740;BME280;64357;51.344;6.550;2023-04-03T03:36:10;102515.78;;;2.22;80.81
75740;BME280;64357;51.344;6.550;2023-04-03T03:38:36;102518.56;;;2.23;80.77
75740;BME280;64357;51.344;6.550;2023-04-03T03:41:04;102500.84;;;2.18;80.73
75740;BME280;64357;51.344;6.550;2023-04-03T03:43:29;102509.06;;;2.17;80.94
75740;BME280;64357;51.344;6.550;2023-04-03T03:45:55;102505.91;;;2.18;80.42
75740;BME280;64357;51.344;6.550;2023-04-03T03:48:23;102517.13;;;2.20;80.51
75740;BME280;64357;51.344;6.550;2023-04-03T03:50:49;102509.34;;;2.18;80.00
75740;BME280;64357;51.344;6.550;2023-04-03T03:53:15;102517.81;;;2.19;80.71
75740;BME280;64357;51.344;6.550;2023-04-03T03:55:41;102508.88;;;2.21;79.60
75740;BME280;64357;51.344;6.550;2023-04-03T03:58:09;102513.50;;;2.23;80.13
75740;BME280;64357;51.344;6.550;2023-04-03T04:00:35;102505.44;;;2.20;79.83
75740;BME280;64357;51.344;6.550;2023-04-03T04:03:01;102509.56;;;2.20;80.02
75740;BME280;64357;51.344;6.550;2023-04-03T04:05:28;102503.56;;;2.13;79.81
75740;BME280;64357;51.344;6.550;2023-04-03T04:07:54;102518.22;;;2.16;79.71
75740;BME280;64357;51.344;6.550;2023-04-03T04:10:21;102520.97;;;2.12;80.05
75740;BME280;64357;51.344;6.550;2023-04-03T04:12:47;102512.84;;;2.03;80.19
75740;BME280;64357;51.344;6.550;2023-04-03T04:15:14;102513.78;;;2.04;80.02
75740;BME280;64357;51.344;6.550;2023-04-03T04:17:39;102520.34;;;1.98;80.67
75740;BME280;64357;51.344;6.550;2023-04-03T04:20:05;102516.22;;;1.98;80.07
75740;BME280;64357;51.344;6.550;2023-04-03T04:22:31;102532.28;;;1.99;80.42
75740;BME280;64357;51.344;6.550;2023-04-03T04:24:56;102536.22;;;2.02;80.19
75740;BME280;64357;51.344;6.550;2023-04-03T04:27:24;102528.66;;;2.02;79.68
75740;BME280;64357;51.344;6.550;2023-04-03T04:29:49;102531.13;;;1.97;79.87
75740;BME280;64357;51.344;6.550;2023-04-03T04:32:17;102529.97;;;1.95;79.97
75740;BME280;64357;51.344;6.550;2023-04-03T04:34:43;102536.59;;;1.94;79.61
75740;BME280;64357;51.344;6.550;2023-04-03T04:37:08;102535.84;;;1.90;79.52
75740;BME280;64357;51.344;6.550;2023-04-03T04:39:33;102536.94;;;1.86;80.26
75740;BME280;64357;51.344;6.550;2023-04-03T04:42:01;102541.75;;;1.84;79.71
75740;BME280;64357;51.344;6.550;2023-04-03T04:44:27;102543.97;;;1.77;80.31
75740;BME280;64357;51.344;6.550;2023-04-03T04:46:55;102545.81;;;1.78;80.50
75740;BME280;64357;51.344;6.550;2023-04-03T04:49:20;102529.66;;;1.67;80.70
75740;BME280;64357;51.344;6.550;2023-04-03T04:51:45;102551.25;;;1.76;80.89
75740;BME280;64357;51.344;6.550;2023-04-03T04:54:14;102552.28;;;1.82;79.96
75740;BME280;64357;51.344;6.550;2023-04-03T04:56:42;102551.78;;;1.79;79.93
75740;BME280;64357;51.344;6.550;2023-04-03T04:59:07;102555.66;;;1.77;80.43
75740;BME280;64357;51.344;6.550;2023-04-03T05:01:32;102560.19;;;1.74;80.32
75740;BME280;64357;51.344;6.550;2023-04-03T05:04:00;102559.50;;;1.75;80.06
75740;BME280;64357;51.344;6.550;2023-04-03T05:06:26;102550.47;;;1.66;80.51
75740;BME280;64357;51.344;6.550;2023-04-03T05:08:53;102557.84;;;1.70;80.32
75740;BME280;64357;51.344;6.550;2023-04-03T05:11:19;102552.00;;;1.59;79.99
75740;BME280;64357;51.344;6.550;2023-04-03T05:13:46;102559.34;;;1.64;80.17
75740;BME280;64357;51.344;6.550;2023-04-03T05:16:12;102563.06;;;1.66;80.48
75740;BME280;64357;51.344;6.550;2023-04-03T05:18:41;102558.28;;;1.67;80.45
75740;BME280;64357;51.344;6.550;2023-04-03T05:21:08;102568.88;;;1.70;79.94
75740;BME280;64357;51.344;6.550;2023-04-03T05:23:34;102560.84;;;1.73;80.49
75740;BME280;64357;51.344;6.550;2023-04-03T05:25:59;102551.41;;;1.66;79.79
75740;BME280;64357;51.344;6.550;2023-04-03T05:28:38;102560.56;;;1.66;79.97
75740;BME280;64357;51.344;6.550;2023-04-03T05:31:12;102563.06;;;1.66;79.73
75740;BME280;64357;51.344;6.550;2023-04-03T05:33:39;102541.34;;;1.51;80.00
75740;BME280;64357;51.344;6.550;2023-04-03T05:36:05;102573.56;;;1.63;79.79
75740;BME280;64357;51.344;6.550;2023-04-03T05:38:31;102565.28;;;1.58;79.61
75740;BME280;64357;51.344;6.550;2023-04-03T05:40:57;102556.38;;;1.60;79.75
75740;BME280;64357;51.344;6.550;2023-04-03T05:43:22;102579.09;;;1.66;79.33
75740;BME280;64357;51.344;6.550;2023-04-03T05:45:47;102589.38;;;1.83;79.47
75740;BME280;64357;51.344;6.550;2023-04-03T05:48:13;102569.94;;;1.67;79.77
75740;BME280;64357;51.344;6.550;2023-04-03T05:50:38;102578.94;;;1.70;79.38
75740;BME280;64357;51.344;6.550;2023-04-03T05:53:07;102589.13;;;1.81;79.25
75740;BME280;64357;51.344;6.550;2023-04-03T05:55:36;102601.53;;;1.85;78.79
75740;BME280;64357;51.344;6.550;2023-04-03T05:58:01;102582.00;;;1.79;79.14
75740;BME280;64357;51.344;6.550;2023-04-03T06:00:27;102607.81;;;1.93;78.77
75740;BME280;64357;51.344;6.550;2023-04-03T06:02:52;102604.56;;;1.89;78.63
75740;BME280;64357;51.344;6.550;2023-04-03T06:05:25;102598.19;;;1.91;78.65
75740;BME280;64357;51.344;6.550;2023-04-03T06:07:50;102597.31;;;1.96;78.31
75740;BME280;64357;51.344;6.550;2023-04-03T06:10:16;102595.03;;;1.97;78.87
75740;BME280;64357;51.344;6.550;2023-04-03T06:12:45;102602.91;;;2.04;78.16
75740;BME280;64357;51.344;6.550;2023-04-03T06:15:15;102605.00;;;2.07;77.79
75740;BME280;64357;51.344;6.550;2023-04-03T06:17:44;102602.50;;;2.07;77.36
75740;BME280;64357;51.344;6.550;2023-04-03T06:20:13;102608.34;;;2.17;77.34
75740;BME280;64357;51.344;6.550;2023-04-03T06:22:41;102591.78;;;2.13;77.16
75740;BME280;64357;51.344;6.550;2023-04-03T06:25:07;102597.75;;;2.14;76.74
75740;BME280;64357;51.344;6.550;2023-04-03T06:27:34;102609.09;;;2.27;76.94
75740;BME280;64357;51.344;6.550;2023-04-03T06:29:59;102605.84;;;2.23;76.53
75740;BME280;64357;51.344;6.550;2023-04-03T06:32:25;102606.88;;;2.34;76.60
75740;BME280;64357;51.344;6.550;2023-04-03T06:34:50;102611.97;;;2.40;76.11
75740;BME280;64357;51.344;6.550;2023-04-03T06:37:17;102599.38;;;2.40;75.95
75740;BME280;64357;51.344;6.550;2023-04-03T06:39:43;102609.78;;;2.47;76.12
75740;BME280;64357;51.344;6.550;2023-04-03T06:42:10;102599.00;;;2.48;75.94
75740;BME280;64357;51.344;6.550;2023-04-03T06:44:38;102592.88;;;2.57;75.43
75740;BME280;64357;51.344;6.550;2023-04-03T06:47:03;102613.75;;;2.56;75.19
75740;BME280;64357;51.344;6.550;2023-04-03T06:49:29;102618.84;;;2.62;75.17
75740;BME280;64357;51.344;6.550;2023-04-03T06:51:55;102615.28;;;2.71;75.37
75740;BME280;64357;51.344;6.550;2023-04-03T06:54:24;102613.72;;;2.77;75.02
75740;BME280;64357;51.344;6.550;2023-04-03T06:56:50;102623.41;;;2.85;74.57
75740;BME280;64357;51.344;6.550;2023-04-03T06:59:16;102618.13;;;2.84;74.29
75740;BME280;64357;51.344;6.550;2023-04-03T07:01:42;102624.38;;;2.91;74.03
75740;BME280;64357;51.344;6.550;2023-04-03T07:04:07;102629.88;;;2.89;73.75
75740;BME280;64357;51.344;6.550;2023-04-03T07:06:33;102627.13;;;2.87;73.56
75740;BME280;64357;51.344;6.550;2023-04-03T07:08:59;102619.28;;;2.86;73.12
75740;BME280;64357;51.344;6.550;2023-04-03T07:11:25;102631.47;;;2.88;74.10
75740;BME280;64357;51.344;6.550;2023-04-03T07:13:51;102636.13;;;2.97;73.07
75740;BME280;64357;51.344;6.550;2023-04-03T07:16:17;102631.81;;;3.01;73.17
75740;BME280;64357;51.344;6.550;2023-04-03T07:18:42;102634.00;;;3.20;72.94
75740;BME280;64357;51.344;6.550;2023-04-03T07:21:07;102643.19;;;3.20;71.98
75740;BME280;64357;51.344;6.550;2023-04-03T07:23:33;102641.81;;;3.22;72.38
75740;BME280;64357;51.344;6.550;2023-04-03T07:25:58;102640.19;;;3.17;71.67
75740;BME280;64357;51.344;6.550;2023-04-03T07:28:24;102641.56;;;3.20;72.05
75740;BME280;64357;51.344;6.550;2023-04-03T07:31:10;102636.75;;;3.22;71.95
75740;BME280;64357;51.344;6.550;2023-04-03T07:33:39;102652.47;;;3.36;71.57
75740;BME280;64357;51.344;6.550;2023-04-03T07:36:06;102646.94;;;3.33;71.41
75740;BME280;64357;51.344;6.550;2023-04-03T07:38:37;102644.28;;;3.48;70.43
75740;BME280;64357;51.344;6.550;2023-04-03T07:41:05;102653.50;;;3.54;69.20
75740;BME280;64357;51.344;6.550;2023-04-03T07:43:31;102658.34;;;3.52;69.00
75740;BME280;64357;51.344;6.550;2023-04-03T07:46:00;102640.69;;;3.58;68.96
75740;BME280;64357;51.344;6.550;2023-04-03T07:48:28;102648.69;;;3.55;68.17
75740;BME280;64357;51.344;6.550;2023-04-03T07:50:53;102645.47;;;3.56;67.79
75740;BME280;64357;51.344;6.550;2023-04-03T07:53:18;102651.25;;;3.61;67.60
75740;BME280;64357;51.344;6.550;2023-04-03T07:55:48;102655.69;;;3.73;67.57
75740;BME280;64357;51.344;6.550;2023-04-03T07:58:18;102654.13;;;3.85;67.43
75740;BME280;64357;51.344;6.550;2023-04-03T08:00:44;102658.91;;;3.78;67.37
75740;BME280;64357;51.344;6.550;2023-04-03T08:03:13;102650.22;;;3.81;67.20
75740;BME280;64357;51.344;6.550;2023-04-03T08:05:42;102638.72;;;3.83;65.34
75740;BME280;64357;51.344;6.550;2023-04-03T08:08:11;102658.13;;;4.05;65.20
75740;BME280;64357;51.344;6.550;2023-04-03T08:10:47;102661.38;;;4.21;64.46
75740;BME280;64357;51.344;6.550;2023-04-03T08:13:13;102662.34;;;4.33;64.19
75740;BME280;64357;51.344;6.550;2023-04-03T08:15:38;102659.38;;;4.41;62.73
75740;BME280;64357;51.344;6.550;2023-04-03T08:18:04;102649.03;;;4.45;62.52
75740;BME280;64357;51.344;6.550;2023-04-03T08:20:29;102652.50;;;4.57;61.47
75740;BME280;64357;51.344;6.550;2023-04-03T08:22:57;102650.63;;;4.44;60.35
75740;BME280;64357;51.344;6.550;2023-04-03T08:25:22;102654.78;;;4.49;61.34
75740;BME280;64357;51.344;6.550;2023-04-03T08:27:52;102642.63;;;4.64;60.38
75740;BME280;64357;51.344;6.550;2023-04-03T08:30:17;102643.09;;;4.72;59.51
75740;BME280;64357;51.344;6.550;2023-04-03T08:32:45;102648.16;;;4.78;57.36
75740;BME280;64357;51.344;6.550;2023-04-03T08:35:11;102647.94;;;4.93;56.83
75740;BME280;64357;51.344;6.550;2023-04-03T08:37:38;102653.47;;;5.02;55.05
75740;BME280;64357;51.344;6.550;2023-04-03T08:40:05;102663.56;;;4.85;54.34
75740;BME280;64357;51.344;6.550;2023-04-03T08:42:36;102652.31;;;4.89;53.67
75740;BME280;64357;51.344;6.550;2023-04-03T08:47:52;102655.28;;;5.08;50.44
75740;BME280;64357;51.344;6.550;2023-04-03T08:50:26;102657.13;;;5.09;50.19
75740;BME280;64357;51.344;6.550;2023-04-03T08:52:59;102656.41;;;5.27;51.63
75740;BME280;64357;51.344;6.550;2023-04-03T08:55:28;102652.06;;;5.26;51.40
75740;BME280;64357;51.344;6.550;2023-04-03T08:58:03;102663.09;;;5.44;48.65
75740;BME280;64357;51.344;6.550;2023-04-03T09:00:37;102660.00;;;5.74;48.75
75740;BME280;64357;51.344;6.550;2023-04-03T09:03:12;102661.50;;;6.13;47.23
75740;BME280;64357;51.344;6.550;2023-04-03T09:08:34;102662.13;;;7.47;41.89
75740;BME280;64357;51.344;6.550;2023-04-03T09:14:04;102644.94;;;9.18;38.14
75740;BME280;64357;51.344;6.550;2023-04-03T09:19:28;102651.22;;;7.72;39.10
75740;BME280;64357;51.344;6.550;2023-04-03T09:24:45;102658.94;;;9.15;35.24
75740;BME280;64357;51.344;6.550;2023-04-03T09:27:25;102645.13;;;8.94;35.30
75740;BME280;64357;51.344;6.550;2023-04-03T09:29:54;102648.41;;;9.19;35.27
75740;BME280;64357;51.344;6.550;2023-04-03T09:32:35;102637.03;;;9.80;34.80
75740;BME280;64357;51.344;6.550;2023-04-03T09:37:50;102633.28;;;10.76;31.86
75740;BME280;64357;51.344;6.550;2023-04-03T09:41:16;102627.06;;;11.01;32.53
75740;BME280;64357;51.344;6.550;2023-04-03T09:43:53;102637.75;;;10.64;30.22
75740;BME280;64357;51.344;6.550;2023-04-03T09:46:31;102630.50;;;10.94;30.33
75740;BME280;64357;51.344;6.550;2023-04-03T09:48:59;102631.09;;;10.99;29.13
75740;BME280;64357;51.344;6.550;2023-04-03T09:51:28;102638.59;;;10.58;30.06
75740;BME280;64357;51.344;6.550;2023-04-03T09:53:55;102629.34;;;9.93;29.91
75740;BME280;64357;51.344;6.550;2023-04-03T09:56:29;102635.94;;;10.44;29.72
75740;BME280;64357;51.344;6.550;2023-04-03T10:01:30;102626.72;;;10.78;29.70
75740;BME280;64357;51.344;6.550;2023-04-03T10:04:18;102620.69;;;10.98;29.62
75740;BME280;64357;51.344;6.550;2023-04-03T10:06:46;102623.47;;;10.39;29.25
75740;BME280;64357;51.344;6.550;2023-04-03T10:09:25;102633.75;;;10.27;29.06
75740;BME280;64357;51.344;6.550;2023-04-03T10:12:01;102628.38;;;10.05;27.79
75740;BME280;64357;51.344;6.550;2023-04-03T10:14:30;102627.06;;;10.54;27.46
75740;BME280;64357;51.344;6.550;2023-04-03T10:17:57;102619.31;;;10.67;28.31
75740;BME280;64357;51.344;6.550;2023-04-03T10:23:18;102620.56;;;11.10;28.56
75740;BME280;64357;51.344;6.550;2023-04-03T10:28:55;102619.78;;;11.72;25.78
75740;BME280;64357;51.344;6.550;2023-04-03T10:34:05;102610.00;;;11.14;27.44
75740;BME280;64357;51.344;6.550;2023-04-03T10:39:36;102596.13;;;11.61;27.10
75740;BME280;64357;51.344;6.550;2023-04-03T10:42:13;102590.34;;;11.69;26.88
75740;BME280;64357;51.344;6.550;2023-04-03T10:45:17;102594.84;;;11.50;27.27
75740;BME280;64357;51.344;6.550;2023-04-03T10:48:04;102588.28;;;12.29;26.73
75740;BME280;64357;51.344;6.550;2023-04-03T10:53:29;102591.59;;;11.65;27.54
75740;BME280;64357;51.344;6.550;2023-04-03T10:56:15;102593.19;;;11.85;27.53
75740;BME280;64357;51.344;6.550;2023-04-03T10:58:49;102595.06;;;11.25;27.85
75740;BME280;64357;51.344;6.550;2023-04-03T11:01:24;102586.44;;;10.90;29.21
75740;BME280;64357;51.344;6.550;2023-04-03T11:03:57;102580.91;;;11.82;29.35
75740;BME280;64357;51.344;6.550;2023-04-03T11:06:28;102578.72;;;10.56;29.92
75740;BME280;64357;51.344;6.550;2023-04-03T11:09:01;102576.63;;;11.27;29.85
75740;BME280;64357;51.344;6.550;2023-04-03T11:11:34;102584.81;;;10.63;30.53
75740;BME280;64357;51.344;6.550;2023-04-03T11:16:47;102567.25;;;12.03;28.69
75740;BME280;64357;51.344;6.550;2023-04-03T11:19:39;102581.19;;;11.78;29.50
75740;BME280;64357;51.344;6.550;2023-04-03T11:27:48;102565.94;;;12.78;27.96
75740;BME280;64357;51.344;6.550;2023-04-03T11:30:25;102560.66;;;12.62;28.12
75740;BME280;64357;51.344;6.550;2023-04-03T11:36:10;102550.38;;;12.91;27.72
75740;BME280;64357;51.344;6.550;2023-04-03T11:38:42;102556.09;;;12.67;28.15
75740;BME280;64357;51.344;6.550;2023-04-03T11:41:09;102563.59;;;12.58;27.95
75740;BME280;64357;51.344;6.550;2023-04-03T11:43:55;102555.72;;;12.42;29.01
75740;BME280;64357;51.344;6.550;2023-04-03T11:47:01;102551.84;;;12.81;29.00
75740;BME280;64357;51.344;6.550;2023-04-03T11:52:55;102542.69;;;12.76;27.81
75740;BME280;64357;51.344;6.550;2023-04-03T12:21:18;102520.00;;;12.37;30.56
75740;BME280;64357;51.344;6.550;2023-04-03T12:28:58;102507.44;;;11.47;32.10
75740;BME280;64357;51.344;6.550;2023-04-03T12:31:25;102509.59;;;11.99;31.79
75740;BME280;64357;51.344;6.550;2023-04-03T12:40:04;102504.03;;;11.68;32.23
75740;BME280;64357;51.344;6.550;2023-04-03T12:45:24;102503.59;;;11.02;31.36
75740;BME280;64357;51.344;6.550;2023-04-03T12:47:52;102506.94;;;11.64;31.37
75740;BME280;64357;51.344;6.550;2023-04-03T12:50:19;102497.47;;;11.84;30.96
75740;BME280;64357;51.344;6.550;2023-04-03T12:52:52;102495.38;;;11.46;30.17
75740;BME280;64357;51.344;6.550;2023-04-03T12:55:20;102492.41;;;11.36;30.89
75740;BME280;64357;51.344;6.550;2023-04-03T12:57:47;102481.84;;;11.54;30.60
75740;BME280;64357;51.344;6.550;2023-04-03T13:00:39;102488.19;;;11.85;31.40
75740;BME280;64357;51.344;6.550;2023-04-03T13:03:06;102476.22;;;11.57;30.62
75740;BME280;64357;51.344;6.550;2023-04-03T13:05:44;102475.19;;;12.05;30.43
75740;BME280;64357;51.344;6.550;2023-04-03T13:08:12;102477.56;;;12.17;30.38
75740;BME280;64357;51.344;6.550;2023-04-03T13:10:53;102473.72;;;11.92;30.76
75740;BME280;64357;51.344;6.550;2023-04-03T13:13:20;102472.66;;;11.28;30.34
75740;BME280;64357;51.344;6.550;2023-04-03T13:15:47;102460.16;;;10.68;30.68
75740;BME280;64357;51.344;6.550;2023-04-03T13:20:53;102465.03;;;9.73;32.88
75740;BME280;64357;51.344;6.550;2023-04-03T13:23:19;102477.81;;;9.93;32.22
75740;BME280;64357;51.344;6.550;2023-04-03T13:25:47;102478.34;;;9.70;32.68
75740;BME280;64357;51.344;6.550;2023-04-03T13:28:16;102468.56;;;9.60;32.68
75740;BME280;64357;51.344;6.550;2023-04-03T13:33:35;102472.19;;;9.43;34.60
75740;BME280;64357;51.344;6.550;2023-04-03T13:36:18;102464.84;;;9.71;34.33
75740;BME280;64357;51.344;6.550;2023-04-03T13:38:45;102465.00;;;9.85;34.62
75740;BME280;64357;51.344;6.550;2023-04-03T13:41:31;102452.66;;;9.96;34.80
75740;BME280;64357;51.344;6.550;2023-04-03T13:46:56;102470.00;;;9.58;33.89
75740;BME280;64357;51.344;6.550;2023-04-03T13:49:33;102461.22;;;9.37;34.20
75740;BME280;64357;51.344;6.550;2023-04-03T13:52:24;102457.47;;;9.27;33.96
75740;BME280;64357;51.344;6.550;2023-04-03T13:55:00;102473.91;;;9.49;34.11
75740;BME280;64357;51.344;6.550;2023-04-03T13:57:27;102462.72;;;9.42;33.97
75740;BME280;64357;51.344;6.550;2023-04-03T13:59:53;102459.88;;;9.66;33.98
75740;BME280;64357;51.344;6.550;2023-04-03T14:02:38;102454.75;;;9.13;34.41
75740;BME280;64357;51.344;6.550;2023-04-03T14:05:07;102448.25;;;9.02;34.15
75740;BME280;64357;51.344;6.550;2023-04-03T14:07:33;102451.69;;;9.16;34.93
75740;BME280;64357;51.344;6.550;2023-04-03T14:10:05;102410.19;;;9.17;34.25
75740;BME280;64357;51.344;6.550;2023-04-03T14:12:36;102427.44;;;9.12;34.18
75740;BME280;64357;51.344;6.550;2023-04-03T14:15:23;102443.72;;;9.20;34.11
75740;BME280;64357;51.344;6.550;2023-04-03T14:17:50;102431.06;;;9.14;34.09
75740;BME280;64357;51.344;6.550;2023-04-03T14:20:21;102425.91;;;9.07;34.27
75740;BME280;64357;51.344;6.550;2023-04-03T14:22:49;102442.41;;;9.16;34.52
75740;BME280;64357;51.344;6.550;2023-04-03T14:25:16;102431.41;;;9.10;35.35
75740;BME280;64357;51.344;6.550;2023-04-03T14:27:49;102428.09;;;9.24;34.89
75740;BME280;64357;51.344;6.550;2023-04-03T14:30:29;102424.03;;;9.19;34.07
75740;BME280;64357;51.344;6.550;2023-04-03T14:32:55;102428.81;;;9.23;34.58
75740;BME280;64357;51.344;6.550;2023-04-03T14:35:24;102416.56;;;9.33;34.82
75740;BME280;64357;51.344;6.550;2023-04-03T14:37:50;102400.19;;;9.18;35.14
75740;BME280;64357;51.344;6.550;2023-04-03T14:40:20;102419.59;;;9.30;34.76
75740;BME280;64357;51.344;6.550;2023-04-03T14:42:47;102408.84;;;9.13;35.08
75740;BME280;64357;51.344;6.550;2023-04-03T14:45:25;102414.84;;;9.26;34.85
75740;BME280;64357;51.344;6.550;2023-04-03T14:47:53;102405.13;;;9.04;35.32
75740;BME280;64357;51.344;6.550;2023-04-03T14:50:25;102409.09;;;9.02;35.63